createdAt,value
2023-03-20T00:02:29.414Z,86.70
2023-03-20T00:04:59.119Z,86.25
2023-03-20T00:07:30.183Z,86.26
2023-03-20T00:09:59.035Z,86.75
2023-03-20T00:12:27.877Z,86.66
2023-03-20T00:15:01.128Z,86.59
2023-03-20T00:17:30.846Z,86.01
2023-03-20T00:19:59.813Z,85.96
2023-03-20T00:22:29.548Z,86.09
2023-03-20T00:25:03.906Z,85.94
2023-03-20T00:27:32.544Z,86.38
2023-03-20T00:30:01.226Z,86.90
2023-03-20T00:32:31.957Z,86.36
2023-03-20T00:35:00.880Z,87.38
2023-03-20T00:37:29.609Z,87.26
2023-03-20T00:40:00.041Z,87.03
2023-03-20T00:42:29.357Z,87.33
2023-03-20T00:44:59.785Z,88.24
2023-03-20T00:47:28.993Z,87.60
2023-03-20T00:49:59.054Z,87.42
2023-03-20T00:52:29.089Z,87.24
2023-03-20T00:54:57.666Z,88.25
2023-03-20T00:57:29.873Z,88.26
2023-03-20T01:00:02.225Z,88.24
2023-03-20T01:02:31.836Z,88.49
2023-03-20T01:05:05.887Z,88.01
2023-03-20T01:07:34.413Z,91.79
2023-03-20T01:10:05.774Z,89.23
2023-03-20T01:12:37.819Z,88.64
2023-03-20T01:15:17.774Z,89.07
2023-03-20T01:17:47.119Z,89.60
2023-03-20T01:20:22.126Z,89.75
2023-03-20T01:22:51.493Z,89.50
2023-03-20T01:25:20.306Z,89.67
2023-03-20T01:27:54.105Z,89.69
2023-03-20T01:30:26.868Z,90.17
2023-03-20T01:32:56.500Z,90.15
2023-03-20T01:35:29.700Z,90.47
2023-03-20T01:38:02.707Z,89.77
2023-03-20T01:40:41.447Z,90.07
2023-03-20T01:43:20.542Z,90.36
2023-03-20T01:46:00.020Z,94.76
2023-03-20T01:48:37.970Z,91.16
2023-03-20T01:51:08.235Z,91.46
2023-03-20T01:53:37.052Z,90.99
2023-03-20T01:56:06.607Z,91.40
2023-03-20T01:58:47.546Z,91.55
2023-03-20T02:01:16.803Z,91.24
2023-03-20T02:03:52.016Z,92.36
2023-03-20T02:06:41.947Z,91.89
2023-03-20T02:09:17.864Z,92.24
2023-03-20T02:11:48.119Z,92.45
2023-03-20T02:14:20.804Z,96.69
2023-03-20T02:16:57.757Z,93.18
2023-03-20T02:19:49.040Z,93.06
2023-03-20T02:22:47.986Z,93.11
2023-03-20T02:25:59.787Z,93.89
2023-03-20T02:28:53.960Z,93.82
2023-03-20T02:31:46.861Z,93.87
2023-03-20T02:34:52.703Z,94.69
2023-03-20T02:37:48.861Z,94.27
2023-03-20T02:40:27.674Z,93.51
2023-03-20T02:43:03.530Z,94.21
2023-03-20T02:45:40.006Z,94.45
2023-03-20T02:48:22.592Z,94.20
2023-03-20T02:50:54.964Z,94.69
2023-03-20T02:53:36.083Z,95.41
2023-03-20T02:56:12.949Z,95.34
2023-03-20T02:58:47.661Z,95.21
2023-03-20T03:01:22.272Z,95.58
2023-03-20T03:03:56.306Z,95.58
2023-03-20T03:06:31.716Z,95.94
2023-03-20T03:09:05.188Z,96.57
2023-03-20T03:11:37.531Z,96.26
2023-03-20T03:14:07.789Z,96.00
2023-03-20T03:16:39.617Z,96.03
2023-03-20T03:19:10.669Z,96.17
2023-03-20T03:21:41.891Z,96.30
2023-03-20T03:24:40.396Z,96.27
2023-03-20T03:27:18.771Z,95.57
2023-03-20T03:29:52.813Z,95.44
2023-03-20T03:32:27.645Z,95.27
2023-03-20T03:34:57.272Z,95.42
2023-03-20T03:37:40.125Z,94.85
2023-03-20T03:40:21.001Z,95.36
2023-03-20T03:42:58.189Z,95.49
2023-03-20T03:45:33.867Z,95.37
2023-03-20T03:48:08.583Z,95.70
2023-03-20T03:50:48.065Z,96.09
2023-03-20T03:53:22.401Z,96.54
2023-03-20T03:55:57.922Z,97.04
2023-03-20T03:58:30.543Z,97.19
2023-03-20T04:01:01.708Z,97.72
2023-03-20T04:03:34.103Z,97.29
2023-03-20T04:06:06.206Z,96.90
2023-03-20T04:08:35.552Z,97.03
2023-03-20T04:11:05.749Z,97.34
2023-03-20T04:13:34.444Z,97.34
2023-03-20T04:16:03.764Z,97.50
2023-03-20T04:18:32.758Z,98.17
2023-03-20T04:21:02.415Z,97.73
2023-03-20T04:23:31.083Z,97.85
2023-03-20T04:26:00.355Z,98.28
2023-03-20T04:28:31.622Z,98.44
2023-03-20T04:31:21.599Z,98.26
2023-03-20T04:34:29.508Z,99.05
2023-03-20T04:37:10.598Z,98.89
2023-03-20T04:39:51.120Z,98.76
2023-03-20T04:42:19.801Z,98.95
2023-03-20T04:44:49.917Z,99.37
2023-03-20T04:47:19.153Z,99.68
2023-03-20T04:49:48.014Z,99.14
2023-03-20T04:52:19.936Z,98.66
2023-03-20T04:54:48.790Z,98.57
2023-03-20T04:57:20.138Z,98.38
2023-03-20T04:59:50.706Z,97.91
2023-03-20T05:02:19.917Z,97.68
2023-03-20T05:04:48.567Z,97.48
2023-03-20T05:07:17.238Z,97.63
2023-03-20T05:10:01.472Z,97.84
2023-03-20T05:12:33.404Z,98.18
2023-03-20T05:15:13.284Z,97.35
2023-03-20T05:18:02.430Z,97.58
2023-03-20T05:20:54.744Z,97.25
2023-03-20T05:23:45.766Z,97.37
2023-03-20T05:26:25.477Z,96.83
2023-03-20T05:29:13.251Z,96.77
2023-03-20T05:32:05.567Z,96.83
2023-03-20T05:34:55.611Z,97.56
2023-03-20T05:37:33.179Z,96.94
2023-03-20T05:40:16.886Z,96.55
2023-03-20T05:43:01.359Z,96.32
2023-03-20T05:45:39.089Z,96.16
2023-03-20T05:48:21.950Z,95.99
2023-03-20T05:51:16.862Z,95.76
2023-03-20T05:53:54.858Z,95.73
2023-03-20T05:56:35.572Z,95.38
2023-03-20T05:59:22.835Z,94.92
2023-03-20T06:02:11.964Z,95.40
2023-03-20T06:04:47.524Z,94.92
2023-03-20T06:07:46.420Z,94.61
2023-03-20T06:10:17.782Z,94.15
2023-03-20T06:12:46.685Z,94.42
2023-03-20T06:15:16.409Z,94.66
2023-03-20T06:17:51.420Z,95.19
2023-03-20T06:20:21.856Z,95.40
2023-03-20T06:22:50.279Z,94.92
2023-03-20T06:25:19.849Z,95.54
2023-03-20T06:27:48.971Z,94.94
2023-03-20T06:30:18.600Z,94.83
2023-03-20T06:32:48.577Z,94.83
2023-03-20T06:35:20.104Z,94.74
2023-03-20T06:37:54.200Z,93.79
2023-03-20T06:40:28.387Z,94.19
2023-03-20T06:42:57.579Z,93.99
2023-03-20T06:45:36.390Z,93.87
2023-03-20T06:48:10.031Z,93.43
2023-03-20T06:50:38.984Z,93.57
2023-03-20T06:53:13.790Z,94.06
2023-03-20T06:55:49.041Z,93.89
2023-03-20T06:58:17.914Z,93.88
2023-03-20T07:00:49.262Z,92.89
2023-03-20T07:03:18.001Z,92.68
2023-03-20T07:05:48.908Z,92.63
2023-03-20T07:08:20.106Z,91.37
2023-03-20T07:10:51.843Z,91.23
2023-03-20T07:13:20.843Z,90.29
2023-03-20T07:16:03.370Z,88.66
2023-03-20T07:18:38.313Z,87.75
2023-03-20T07:21:11.637Z,87.91
2023-03-20T07:23:46.871Z,86.75
2023-03-20T07:26:18.544Z,86.44
2023-03-20T07:28:48.099Z,85.19
2023-03-20T07:31:26.602Z,84.17
2023-03-20T07:34:05.591Z,83.90
2023-03-20T07:36:36.504Z,83.99
2023-03-20T07:39:07.350Z,83.32
2023-03-20T07:41:39.018Z,82.12
2023-03-20T07:44:11.004Z,81.43
2023-03-20T07:46:53.438Z,80.44
2023-03-20T07:49:25.351Z,79.30
2023-03-20T07:51:55.472Z,78.90
2023-03-20T07:54:26.394Z,77.95
2023-03-20T07:56:55.076Z,77.46
2023-03-20T07:59:23.990Z,75.44
2023-03-20T08:01:52.750Z,73.82
2023-03-20T08:04:23.275Z,72.30
2023-03-20T08:06:52.719Z,70.84
2023-03-20T08:09:21.564Z,69.93
2023-03-20T08:11:52.461Z,68.66
2023-03-20T08:14:25.249Z,68.43
2023-03-20T08:17:10.291Z,68.18
2023-03-20T08:19:41.786Z,69.26
2023-03-20T08:22:10.466Z,69.21
2023-03-20T08:24:39.966Z,69.03
2023-03-20T08:27:10.710Z,68.83
2023-03-20T08:29:39.812Z,67.60
2023-03-20T08:32:08.438Z,66.77
2023-03-20T08:34:37.109Z,65.14
2023-03-20T08:37:08.125Z,65.40
2023-03-20T08:39:36.996Z,65.13
2023-03-20T08:42:06.089Z,64.60
2023-03-20T08:44:36.063Z,63.76
2023-03-20T08:47:06.341Z,63.77
2023-03-20T08:49:35.042Z,62.93
2023-03-20T08:52:03.954Z,63.06
2023-03-20T08:54:33.969Z,62.52
2023-03-20T08:57:02.675Z,60.83
2023-03-20T08:59:31.628Z,60.81
2023-03-20T09:02:01.907Z,60.82
2023-03-20T09:04:31.128Z,60.59
2023-03-20T09:07:01.464Z,60.93
2023-03-20T09:09:30.689Z,59.88
2023-03-20T09:12:00.030Z,58.63
2023-03-20T09:14:29.989Z,57.85
2023-03-20T09:16:58.779Z,57.03
2023-03-20T09:19:30.717Z,56.25
2023-03-20T09:22:00.640Z,56.57
2023-03-20T09:24:31.787Z,56.26
2023-03-20T09:27:03.541Z,56.29
2023-03-20T09:29:33.155Z,55.49
2023-03-20T09:32:02.530Z,54.50
2023-03-20T09:34:32.843Z,53.12
2023-03-20T09:37:03.250Z,53.68
2023-03-20T09:39:32.135Z,52.85
2023-03-20T09:42:09.960Z,50.77
2023-03-20T09:44:52.049Z,48.51
2023-03-20T09:47:27.620Z,49.76
2023-03-20T09:50:10.964Z,50.48
2023-03-20T09:52:44.345Z,51.91
2023-03-20T09:55:17.086Z,50.92
2023-03-20T09:57:51.678Z,51.56
2023-03-20T10:00:24.547Z,49.66
2023-03-20T10:02:59.882Z,47.95
2023-03-20T10:05:32.995Z,47.87
2023-03-20T10:08:04.884Z,47.52
2023-03-20T10:10:47.485Z,45.47
2023-03-20T10:13:32.028Z,45.28
2023-03-20T10:16:12.711Z,45.18
2023-03-20T10:18:51.126Z,45.98
2023-03-20T10:21:29.892Z,45.58
2023-03-20T10:24:03.515Z,45.74
2023-03-20T10:26:35.409Z,45.78
2023-03-20T10:29:08.961Z,45.23
2023-03-20T10:31:44.894Z,43.38
2023-03-20T10:34:33.007Z,42.35
2023-03-20T10:37:17.940Z,43.71
2023-03-20T10:39:56.526Z,42.95
2023-03-20T10:42:30.245Z,44.36
2023-03-20T10:45:03.636Z,43.20
2023-03-20T10:47:37.584Z,44.80
2023-03-20T10:50:12.696Z,43.83
2023-03-20T10:52:43.760Z,46.15
2023-03-20T10:55:17.368Z,46.69
2023-03-20T10:57:52.380Z,47.80
2023-03-20T11:00:24.450Z,48.51
2023-03-20T11:02:53.502Z,50.12
2023-03-20T11:05:26.658Z,51.88
2023-03-20T11:19:15.761Z,59.21
2023-03-20T11:21:50.425Z,59.83
2023-03-20T11:24:38.207Z,60.80
2023-03-20T11:27:09.032Z,60.51
2023-03-20T11:29:39.108Z,61.01
2023-03-20T11:32:13.829Z,61.78
2023-03-20T11:34:43.619Z,61.90
2023-03-20T11:37:24.101Z,63.52
2023-03-20T11:40:00.667Z,63.93
2023-03-20T11:42:31.856Z,63.76
2023-03-20T11:45:07.620Z,65.08
2023-03-20T11:47:37.466Z,65.20
2023-03-20T11:50:07.758Z,65.91
2023-03-20T11:52:38.870Z,66.71
2023-03-20T11:55:26.443Z,69.55
2023-03-20T11:57:58.738Z,69.44
2023-03-20T12:00:30.625Z,69.62
2023-03-20T12:02:59.014Z,71.29
2023-03-20T12:05:34.218Z,73.96
2023-03-20T12:08:10.012Z,74.12
2023-03-20T12:10:45.011Z,76.75
2023-03-20T12:13:18.383Z,76.30
2023-03-20T12:15:51.049Z,76.50
2023-03-20T12:18:28.713Z,81.42
2023-03-20T12:21:08.676Z,78.87
2023-03-20T12:23:42.171Z,78.60
2023-03-20T12:26:16.302Z,79.33
2023-03-20T12:28:51.995Z,80.79
2023-03-20T12:31:28.078Z,81.34
2023-03-20T12:34:01.586Z,81.74
2023-03-20T12:36:34.055Z,82.78
2023-03-20T12:39:05.057Z,83.85
2023-03-20T12:41:42.807Z,85.96
2023-03-20T12:44:26.272Z,87.04
2023-03-20T12:47:08.533Z,85.23
2023-03-20T12:49:48.491Z,86.77
2023-03-20T12:52:24.854Z,86.38
2023-03-20T12:55:18.307Z,88.64
2023-03-20T12:58:02.858Z,88.26
2023-03-20T13:00:36.523Z,84.82
2023-03-20T13:03:20.571Z,85.03
2023-03-20T13:05:54.373Z,83.97
2023-03-20T13:08:53.089Z,84.71
2023-03-20T13:11:32.692Z,85.67
2023-03-20T13:14:07.970Z,83.60
2023-03-20T13:16:47.357Z,84.82
2023-03-20T13:19:27.190Z,85.47
2023-03-20T13:22:02.301Z,84.46
2023-03-20T13:24:40.296Z,84.57
2023-03-20T13:27:30.696Z,86.80
2023-03-20T13:30:05.137Z,86.18
2023-03-20T13:32:47.185Z,85.85
2023-03-20T13:35:29.776Z,91.12
2023-03-20T13:38:02.246Z,85.76
2023-03-20T13:40:31.683Z,90.80
2023-03-20T13:43:19.475Z,85.52
2023-03-20T13:45:53.022Z,85.23
2023-03-20T13:48:30.881Z,85.84
2023-03-20T13:51:10.962Z,85.72
2023-03-20T13:53:50.009Z,86.04
2023-03-20T13:56:29.971Z,85.76
2023-03-20T13:59:15.920Z,85.65
2023-03-20T14:01:52.165Z,85.40
2023-03-20T14:04:24.618Z,85.03
2023-03-20T14:06:55.596Z,84.80
2023-03-20T14:09:35.260Z,85.86
2023-03-20T14:12:18.427Z,85.28
2023-03-20T14:14:52.490Z,85.47
2023-03-20T14:17:22.954Z,90.77
2023-03-20T14:19:52.749Z,85.98
2023-03-20T14:22:24.013Z,86.47
2023-03-20T14:24:58.318Z,87.68
2023-03-20T14:27:43.177Z,87.68
2023-03-20T14:30:42.129Z,90.97
2023-03-20T14:33:43.073Z,91.11
2023-03-20T14:36:42.825Z,92.45
2023-03-20T14:39:24.412Z,89.70
2023-03-20T14:42:04.008Z,89.91
2023-03-20T14:44:49.420Z,90.74
2023-03-20T14:47:27.774Z,88.71
2023-03-20T14:50:04.753Z,88.27
2023-03-20T14:52:43.734Z,88.68
2023-03-20T14:55:34.337Z,91.52
2023-03-20T14:58:27.637Z,88.90
2023-03-20T15:00:56.706Z,88.72
2023-03-20T15:03:25.206Z,88.80
2023-03-20T15:06:00.699Z,89.50
2023-03-20T15:08:33.235Z,89.31
2023-03-20T15:11:04.565Z,96.47
2023-03-20T15:13:36.425Z,90.17
2023-03-20T15:16:08.542Z,90.58
2023-03-20T15:18:52.789Z,90.78
2023-03-20T15:21:31.231Z,91.01
2023-03-20T15:24:00.614Z,90.93
2023-03-20T15:26:30.462Z,91.33
2023-03-20T15:29:03.182Z,91.46
2023-03-20T15:31:34.844Z,91.42
2023-03-20T15:34:06.427Z,91.51
2023-03-20T15:36:39.025Z,92.43
2023-03-20T15:39:14.476Z,92.44
2023-03-20T15:41:47.705Z,92.80
2023-03-20T15:44:22.312Z,92.83
2023-03-20T15:47:02.761Z,93.78
2023-03-20T15:49:33.957Z,93.17
2023-03-20T15:52:08.335Z,93.79
2023-03-20T15:54:37.609Z,93.70
2023-03-20T15:57:06.604Z,93.82
2023-03-20T15:59:35.987Z,94.25
2023-03-20T16:02:05.459Z,94.49
2023-03-20T16:04:34.297Z,94.58
2023-03-20T16:07:04.928Z,94.88
2023-03-20T16:09:44.982Z,95.58
2023-03-20T16:12:17.550Z,96.29
2023-03-20T16:14:48.566Z,96.22
2023-03-20T16:17:18.845Z,97.04
2023-03-20T16:19:47.475Z,97.04
2023-03-20T16:22:27.745Z,99.34
2023-03-20T16:25:00.299Z,97.84
2023-03-20T16:27:31.049Z,98.60
2023-03-20T16:29:59.821Z,98.82
2023-03-20T16:32:36.853Z,99.33
2023-03-20T16:35:12.147Z,99.52
2023-03-20T16:37:49.763Z,99.75
2023-03-20T16:40:22.596Z,100.00
2023-03-20T16:42:54.923Z,99.79
2023-03-20T16:45:25.484Z,100.00
2023-03-20T16:48:22.481Z,100.00
2023-03-20T16:50:58.110Z,99.98
2023-03-20T16:53:30.969Z,99.66
2023-03-20T16:56:00.005Z,99.24
2023-03-20T16:58:31.023Z,99.49
2023-03-20T17:01:01.765Z,100.00
2023-03-20T17:03:36.529Z,100.00
2023-03-20T17:06:09.155Z,100.00
2023-03-20T17:08:42.767Z,100.00
2023-03-20T17:11:14.367Z,100.00
2023-03-20T17:13:43.493Z,100.00
2023-03-20T17:16:17.184Z,100.00
2023-03-20T17:18:46.685Z,100.00
2023-03-20T17:21:15.935Z,100.00
2023-03-20T17:23:45.996Z,100.00
2023-03-20T17:26:14.561Z,100.00
2023-03-20T17:28:43.526Z,100.00
2023-03-20T17:31:16.931Z,100.00
2023-03-20T17:33:47.085Z,100.00
2023-03-20T17:36:19.186Z,100.00
2023-03-20T17:38:49.332Z,100.00
2023-03-20T17:41:20.346Z,100.00
2023-03-20T17:43:51.494Z,100.00
2023-03-20T17:46:21.531Z,100.00
2023-03-20T17:48:51.835Z,100.00
2023-03-20T17:51:20.256Z,100.00
2023-03-20T17:53:55.405Z,100.00
2023-03-20T17:56:30.385Z,100.00
2023-03-20T17:59:00.071Z,100.00
2023-03-20T18:01:31.100Z,100.00
2023-03-20T18:04:01.070Z,100.00
2023-03-20T18:06:31.844Z,100.00
2023-03-20T18:09:02.716Z,100.00
2023-03-20T18:11:31.660Z,100.00
2023-03-20T18:14:02.151Z,100.00
2023-03-20T18:16:32.694Z,100.00
2023-03-20T18:19:02.808Z,100.00
2023-03-20T18:21:31.758Z,100.00
2023-03-20T18:24:01.612Z,100.00
2023-03-20T18:26:30.005Z,100.00
2023-03-20T18:28:59.543Z,100.00
2023-03-20T18:31:28.161Z,100.00
2023-03-20T18:33:56.925Z,100.00
2023-03-20T18:36:26.360Z,100.00
2023-03-20T18:38:56.120Z,100.00
2023-03-20T18:41:26.807Z,100.00
2023-03-20T18:43:56.731Z,100.00
2023-03-20T18:46:27.497Z,100.00
2023-03-20T18:48:58.198Z,100.00
2023-03-20T18:51:27.090Z,100.00
2023-03-20T18:53:56.060Z,100.00
2023-03-20T18:56:27.821Z,100.00
2023-03-20T18:58:56.513Z,100.00
2023-03-20T19:01:25.134Z,100.00
2023-03-20T19:03:54.034Z,100.00
2023-03-20T19:06:24.424Z,100.00
2023-03-20T19:08:53.556Z,100.00
2023-03-20T19:11:22.433Z,100.00
2023-03-20T19:13:54.496Z,100.00
2023-03-20T19:16:26.510Z,100.00
2023-03-20T19:18:56.407Z,100.00
2023-03-20T19:21:26.493Z,100.00
2023-03-20T19:23:55.641Z,100.00
2023-03-20T19:26:26.845Z,100.00
2023-03-20T19:28:58.312Z,100.00
2023-03-20T19:31:28.301Z,100.00
2023-03-20T19:33:57.367Z,100.00
2023-03-20T19:36:29.266Z,100.00
2023-03-20T19:38:59.640Z,100.00
2023-03-20T19:41:32.362Z,100.00
2023-03-20T19:44:02.473Z,100.00
2023-03-20T19:46:41.216Z,100.00
2023-03-20T19:49:18.979Z,100.00
2023-03-20T19:51:49.157Z,100.00
2023-03-20T19:54:18.665Z,100.00
2023-03-20T19:56:47.694Z,100.00
2023-03-20T19:59:17.962Z,100.00
2023-03-20T20:01:47.033Z,100.00
2023-03-20T20:04:16.841Z,100.00
2023-03-20T20:06:47.504Z,100.00
2023-03-20T20:09:16.770Z,100.00
2023-03-20T20:11:45.487Z,100.00
2023-03-20T20:14:15.339Z,100.00
2023-03-20T20:16:47.385Z,100.00
2023-03-20T20:19:16.564Z,100.00
2023-03-20T20:24:34.158Z,100.00
2023-03-20T20:27:16.317Z,100.00
2023-03-20T20:29:49.391Z,100.00
2023-03-20T20:32:20.970Z,100.00
2023-03-20T20:38:27.136Z,100.00
2023-03-20T20:40:33.132Z,100.00
2023-03-20T20:43:05.311Z,100.00
2023-03-20T20:45:38.104Z,100.00
2023-03-20T20:48:09.732Z,100.00
2023-03-20T20:50:39.326Z,100.00
2023-03-20T20:53:09.011Z,100.00
2023-03-20T20:55:38.029Z,100.00
2023-03-20T20:58:07.199Z,100.00
2023-03-20T21:00:49.543Z,100.00
2023-03-20T21:03:22.430Z,100.00
2023-03-20T21:05:51.350Z,100.00
2023-03-20T21:08:20.288Z,100.00
2023-03-20T21:10:50.565Z,100.00
2023-03-20T21:13:19.496Z,100.00
2023-03-20T21:15:48.457Z,100.00
2023-03-20T21:18:17.597Z,100.00
2023-03-20T21:20:47.960Z,100.00
2023-03-20T21:23:16.946Z,100.00
2023-03-20T21:25:47.970Z,100.00
2023-03-20T21:28:17.264Z,100.00
2023-03-20T21:31:12.512Z,100.00
2023-03-20T21:33:37.042Z,100.00
2023-03-20T21:36:08.366Z,100.00
2023-03-20T21:39:06.069Z,100.00
2023-03-20T21:41:26.075Z,100.00
2023-03-20T21:43:56.131Z,100.00
2023-03-20T21:47:10.349Z,100.00
2023-03-20T21:55:38.537Z,100.00
2023-03-20T21:58:29.178Z,100.00
2023-03-20T22:01:29.074Z,100.00
2023-03-20T22:03:52.025Z,100.00
2023-03-20T22:07:13.081Z,100.00
2023-03-20T22:18:12.160Z,100.00
2023-03-20T22:21:06.747Z,100.00
2023-03-20T22:23:56.138Z,100.00
2023-03-20T22:27:05.320Z,100.00
2023-03-20T22:32:27.667Z,100.00
2023-03-20T22:35:19.668Z,100.00
2023-03-20T22:40:53.611Z,100.00
2023-03-20T22:44:13.700Z,100.00
2023-03-20T22:46:05.396Z,100.00
2023-03-20T22:48:34.561Z,100.00
2023-03-20T22:51:03.851Z,100.00
2023-03-20T22:53:34.565Z,100.00
2023-03-20T22:56:04.566Z,100.00
2023-03-20T22:58:35.064Z,100.00
2023-03-20T23:01:04.030Z,100.00
2023-03-20T23:03:41.445Z,100.00
2023-03-20T23:06:16.770Z,100.00
2023-03-20T23:08:52.418Z,100.00
2023-03-20T23:11:25.357Z,100.00
2023-03-20T23:13:56.462Z,100.00
2023-03-20T23:16:25.895Z,100.00
2023-03-20T23:18:55.003Z,100.00
2023-03-20T23:21:24.515Z,100.00
2023-03-20T23:23:53.750Z,100.00
2023-03-20T23:26:23.488Z,100.00
2023-03-20T23:28:54.739Z,100.00
2023-03-20T23:31:25.258Z,100.00
2023-03-20T23:33:55.852Z,100.00
2023-03-20T23:36:36.097Z,100.00
2023-03-20T23:39:06.934Z,100.00
2023-03-20T23:42:02.318Z,100.00
2023-03-20T23:44:26.490Z,100.00
2023-03-20T23:46:55.786Z,100.00
2023-03-20T23:49:24.572Z,100.00
2023-03-20T23:51:53.255Z,100.00
2023-03-20T23:54:21.847Z,100.00
2023-03-20T23:56:50.715Z,100.00
2023-03-20T23:59:21.821Z,100.00
